Ironwood, MI

3:02 AM CDT on June 03, 2015 (GMT -0500)
Kings Land O'Lakes | | Change Station
CLOSE
Current Station
Airport
Location: Land O' Lakes,
Elevation: 1706 ft
Nearby Weather Stations

Elev 1706 ft 46.15 °N, 89.21 °W | Updated 7 minutes ago

Mostly Cloudy
Mostly Cloudy
55 °F
Feels Like 55 °F
N
6
Wind Variable Wind from South

Today
High -- | Low -- °F
--% Chance of Precip.
Yesterday
High -- | Low -- °F
Precip. -- in
5:10 AM 8:47 PM
Waxing Gibbous, 99% visible
Pressure 30.00 in
Visibility 10.0 miles
Clouds Clear
Dew Point 42 °F
Humidity 60%
Rainfall 0.00 in
Snow Depth Not available.
UV 0 out of 12
Pollen 8.20 out of 12
Air Quality Not available.
Flu Activity Sporadic
METAR KLNL 030755Z AUTO 18005KT 10SM CLR 13/06 A3000 RMK AO2 T01300055

More Conditions Fewer Conditions

Pressure 30.00 in
Visibility 10.0 miles
Clouds Clear
Dew Point 42 °F
Humidity 60%
Rainfall 0.00 in
Snow Depth Not available.
UV 0 out of 12
Pollen 8.20 out of 12
Air Quality Not available.
Flu Activity Sporadic
METAR KLNL 030755Z AUTO 18005KT 10SM CLR 13/06 A3000 RMK AO2 T01300055

More Conditions Fewer Conditions

10-Day Weather Forecast

×

Almanac

Astronomy

Jun. 03, 2015 Rise Set
Actual Time
Civil Twilight
Nautical Twilight
Astronomical Twilight
Moon
Length of Visible Light
Length of Day
Tomorrow will be .
, % of the Moon is Illuminated

Today's Extremes

State Highs State Lows

Community

WunderPhotos

Upload Photos

1,826,191 photos uploaded!

WunderBlogs® & News

Nearby

Air Quality

  Air Quality AQ Index Pollutant
Not available.

Snow Depth

Station Depth Elevation

Earthquake Activity

City Distance Mag. Time & Date
Minimum magnitude displayed is 2.5.

Coastal Water Temperatures

Place Temperature

Stations

Nearby Weather Stations

Station Location Temp. Windchill Dew Point Humidity Wind Precip. Elev Updated Type